Terminal Aerodrome Forecast
Issued by NWS

Home | Current Version | Previous Version | Text Only | Print | Product List | Glossary On
Versions: 1 2 3 4 5 6 7 8 9 10 11 12 13 14
000
FTUS43 KLSX 191100
TAFUIN
TAF
KUIN 191120Z 1912/2012 13010KT P6SM FEW250
     FM191800 16014KT P6SM SKC=

USA.gov is the U.S. government's official web portal to all federal, state and local government web resources and services.